Duquoin, Kansas
Current Conditions -  °F | °C
As of 3:53 PM on Sunday 23 Nov 2014 (Local Time) from KICT Reporting Station
Light Rain Light Rain  
Wind Chill: 34°   Ceiling: 3900
Heat Index: 44°   Visibility: 10mi
Dew Point: 38°   Wind: 30mph
Humidity: 79%   Direction: 340°NNW
Pressure: 29.49"   Gusts: 41mph
Location:  37.3085°N, 97.9911°W
Report Text: KICT 232153Z 34026G36KT 10SM -RA SCT017 SCT027 OVC039 07/03 A2949 RMK AO2 PK WND 36040/2126 RAE00B38 SLP984 P0000 T00670033
Loading
Personal Weather Stations






























Interactive Weather Map New forecast layout! Learn more

10-Day Weather Forecast

Advertisements
Track Severe Weather on mobile